Time;durP1;ratioP1;P1;durP2;ratioP2;P2;SDS_P1;SDS_P2;PMS_P1;PMS_P2;Temp;Humidity;BMP_temperature;BMP_pressure;BME280_temperature;BME280_humidity;BME280_pressure;Samples;Min_cycle;Max_cycle;Signal;HPM_P1;HPM_P2
2023/05/01 00:02:13;;;;;;;396.50;379.60;;;8.10;99.90;;;;;;6194022;23;20423;-85
2023/05/01 00:04:59;;;;;;;428.40;410.27;;;8.20;99.90;;;;;;6185338;23;20413;-86
2023/05/01 00:07:30;;;;;;;419.83;402.00;;;8.20;99.90;;;;;;6184037;23;20424;-85
2023/05/01 00:09:57;;;;;;;378.27;362.43;;;8.30;99.90;;;;;;6186077;23;20487;-85
2023/05/01 00:12:35;;;;;;;429.93;411.40;;;8.30;99.90;;;;;;6184936;23;20463;-85
2023/05/01 00:15:14;;;;;;;420.77;402.77;;;8.40;99.90;;;;;;6194207;23;20436;-85
2023/05/01 00:17:41;;;;;;;406.87;389.93;;;8.50;99.90;;;;;;6195287;23;20441;-85
2023/05/01 00:20:09;;;;;;;439.13;420.37;;;8.60;99.90;;;;;;6185462;23;20449;-85
2023/05/01 00:22:38;;;;;;;438.00;419.30;;;8.70;99.90;;;;;;6184923;23;20495;-86
2023/05/01 00:25:06;;;;;;;418.40;401.00;;;8.80;99.90;;;;;;6184232;23;20417;-86
2023/05/01 00:27:33;;;;;;;398.27;382.17;;;8.80;99.90;;;;;;6185741;23;20416;-85
2023/05/01 00:30:00;;;;;;;379.10;363.97;;;8.90;99.90;;;;;;6185322;23;20483;-85
2023/05/01 00:32:28;;;;;;;374.13;358.97;;;8.90;99.90;;;;;;6184439;23;20413;-85
2023/05/01 00:34:56;;;;;;;398.57;382.57;;;9.00;99.90;;;;;;6184647;23;20684;-85
2023/05/01 00:37:26;;;;;;;402.10;386.13;;;9.00;99.90;;;;;;6185577;23;20419;-85
2023/05/01 00:40:04;;;;;;;391.53;375.97;;;9.10;99.90;;;;;;6195863;23;20419;-85
2023/05/01 00:42:36;;;;;;;386.17;370.90;;;9.10;99.90;;;;;;6194305;23;20417;-85
2023/05/01 00:45:03;;;;;;;393.80;378.27;;;9.10;99.90;;;;;;6184564;23;20397;-86
2023/05/01 00:47:32;;;;;;;313.77;301.97;;;9.10;99.90;;;;;;6185147;23;20417;-85
2023/05/01 00:50:09;;;;;;;297.90;287.07;;;9.10;99.90;;;;;;6195427;23;20429;-86
2023/05/01 00:52:46;;;;;;;293.40;282.53;;;9.00;99.90;;;;;;6194242;23;20424;-85
2023/05/01 00:55:18;;;;;;;290.10;279.17;;;9.00;99.90;;;;;;6194068;23;20423;-85
2023/05/01 00:57:46;;;;;;;273.73;263.93;;;9.00;99.90;;;;;;6195340;23;20393;-85
2023/05/01 01:00:15;;;;;;;266.77;256.23;;;9.10;99.90;;;;;;6195650;23;20780;-86
2023/05/01 01:02:42;;;;;;;294.37;283.70;;;9.10;99.90;;;;;;6184265;23;20504;-85
2023/05/01 01:05:10;;;;;;;316.10;304.40;;;9.10;99.90;;;;;;6184321;23;20479;-85
2023/05/01 01:07:41;;;;;;;303.53;292.73;;;9.10;99.90;;;;;;6187452;23;20413;-85
2023/05/01 01:10:23;;;;;;;312.03;300.73;;;9.10;99.90;;;;;;6187654;23;20491;-85
2023/05/01 01:12:58;;;;;;;294.77;284.27;;;9.20;99.90;;;;;;6186591;23;20455;-85
2023/05/01 01:15:33;;;;;;;290.67;280.37;;;9.20;99.90;;;;;;6186445;23;20603;-86
2023/05/01 01:18:08;;;;;;;291.57;281.30;;;9.30;99.90;;;;;;6187259;23;20480;-85
2023/05/01 01:20:41;;;;;;;300.47;289.87;;;9.30;99.90;;;;;;6186862;23;20396;-86
2023/05/01 01:23:38;;;;;;;294.17;284.03;;;9.30;99.90;;;;;;6186168;23;20981;-85
2023/05/01 01:26:13;;;;;;;317.07;305.37;;;9.30;99.90;;;;;;6136726;23;20528;-85
2023/05/01 01:29:10;;;;;;;321.67;310.07;;;9.30;99.90;;;;;;6187853;23;20397;-85
2023/05/01 01:31:51;;;;;;;282.80;272.67;;;9.30;99.90;;;;;;6175131;23;20436;-85
2023/05/01 01:34:24;;;;;;;283.93;273.77;;;9.20;99.90;;;;;;6185526;23;20397;-84
2023/05/01 01:37:00;;;;;;;269.10;259.30;;;9.20;99.90;;;;;;6186605;23;20397;-86
2023/05/01 01:39:35;;;;;;;284.13;273.37;;;9.10;99.90;;;;;;6187849;23;20480;-85
2023/05/01 01:42:08;;;;;;;268.03;258.77;;;9.10;99.90;;;;;;6195808;23;20569;-85
2023/05/01 01:44:47;;;;;;;268.97;259.50;;;9.10;99.90;;;;;;6185889;23;20398;-86
2023/05/01 01:47:15;;;;;;;287.90;277.53;;;9.00;99.90;;;;;;6186793;23;20484;-85
2023/05/01 01:49:48;;;;;;;318.77;306.87;;;9.00;99.90;;;;;;6187167;23;20456;-86
2023/05/01 01:52:16;;;;;;;291.70;281.37;;;9.00;99.90;;;;;;6186149;23;20397;-86
2023/05/01 01:54:48;;;;;;;280.67;270.40;;;8.90;99.90;;;;;;6185888;23;20444;-85
2023/05/01 01:57:22;;;;;;;268.30;258.80;;;8.90;99.90;;;;;;6186619;23;20856;-86
2023/05/01 01:59:50;;;;;;;241.93;233.73;;;8.90;99.90;;;;;;6184804;23;20423;-85
2023/05/01 02:02:20;;;;;;;192.83;186.23;;;9.00;99.90;;;;;;6186004;23;20472;-85
2023/05/01 02:04:51;;;;;;;163.80;158.00;;;8.90;99.90;;;;;;6185766;23;20456;-85
2023/05/01 02:07:19;;;;;;;142.90;137.60;;;8.90;99.90;;;;;;6186791;23;20488;-86
2023/05/01 02:09:48;;;;;;;131.87;127.30;;;9.00;99.90;;;;;;6187384;23;20413;-86
2023/05/01 02:12:18;;;;;;;112.87;108.50;;;9.00;99.90;;;;;;6185479;23;20468;-85
2023/05/01 02:14:46;;;;;;;88.97;84.67;;;9.00;99.90;;;;;;6185318;23;20416;-86
2023/05/01 02:17:15;;;;;;;71.83;68.73;;;9.20;99.90;;;;;;6185971;23;20467;-84
2023/05/01 02:19:43;;;;;;;63.30;60.60;;;9.20;99.90;;;;;;6187616;23;20417;-86
2023/05/01 02:22:12;;;;;;;55.60;53.00;;;9.20;99.90;;;;;;6185458;23;20885;-86
2023/05/01 02:24:42;;;;;;;45.23;43.00;;;9.20;99.90;;;;;;6185495;23;20444;-86
2023/05/01 02:27:14;;;;;;;47.80;45.63;;;9.30;99.90;;;;;;6185930;23;20456;-85
2023/05/01 02:29:41;;;;;;;38.47;36.10;;;9.30;99.90;;;;;;6186838;23;20499;-86
2023/05/01 02:32:08;;;;;;;32.93;31.23;;;9.30;99.90;;;;;;6185200;23;21011;-86
2023/05/01 02:34:35;;;;;;;23.73;21.97;;;9.50;99.90;;;;;;6185813;23;20413;-85
2023/05/01 02:37:04;;;;;;;16.47;15.27;;;9.40;99.90;;;;;;6185849;23;20452;-86
2023/05/01 02:39:33;;;;;;;13.07;11.87;;;9.50;99.90;;;;;;6187028;23;20896;-85
2023/05/01 02:42:02;;;;;;;11.57;10.47;;;9.40;99.90;;;;;;6195514;23;20792;-86
2023/05/01 02:44:32;;;;;;;11.13;9.07;;;9.50;99.90;;;;;;6185411;23;20907;-86
2023/05/01 02:50:01;;;;;;;10.10;8.27;;;9.50;99.90;;;;;;6186416;23;20416;-86
2023/05/01 02:52:36;;;;;;;10.57;8.70;;;9.50;99.90;;;;;;6194938;23;20444;-85
2023/05/01 02:55:22;;;;;;;13.67;12.47;;;9.50;99.90;;;;;;6186153;23;20400;-86
2023/05/01 02:58:03;;;;;;;25.17;23.67;;;9.40;99.90;;;;;;6196020;23;20463;-85
2023/05/01 03:00:38;;;;;;;40.57;38.30;;;9.40;99.90;;;;;;6196193;23;20477;-86
2023/05/01 03:03:15;;;;;;;48.37;46.07;;;9.40;99.90;;;;;;6194923;23;20742;-86
2023/05/01 03:05:54;;;;;;;52.63;50.23;;;9.40;99.90;;;;;;6194964;23;20511;-85
2023/05/01 03:08:29;;;;;;;63.67;60.57;;;9.30;99.90;;;;;;6196347;23;20417;-85
2023/05/01 03:11:13;;;;;;;74.37;71.07;;;9.30;99.90;;;;;;6186286;23;20515;-86
2023/05/01 03:13:55;;;;;;;71.17;67.97;;;9.20;99.90;;;;;;6184827;23;20832;-85
2023/05/01 03:16:32;;;;;;;83.50;79.83;;;9.10;99.90;;;;;;6194902;23;20427;-85
2023/05/01 03:19:11;;;;;;;62.20;59.20;;;9.10;99.90;;;;;;6186986;23;20850;-85
2023/05/01 03:21:53;;;;;;;65.07;62.07;;;9.10;99.90;;;;;;6185036;23;20412;-85
2023/05/01 03:24:31;;;;;;;63.90;60.87;;;9.10;99.90;;;;;;6208359;23;20421;-86
2023/05/01 03:27:00;;;;;;;69.87;66.87;;;9.00;99.90;;;;;;6195283;23;20897;-86
2023/05/01 03:29:28;;;;;;;72.77;69.63;;;8.90;99.90;;;;;;6196099;23;20452;-86
2023/05/01 03:31:56;;;;;;;97.07;93.00;;;8.90;99.90;;;;;;6185181;23;20504;-86
2023/05/01 03:34:23;;;;;;;110.50;106.30;;;9.00;99.90;;;;;;6194547;23;20917;-86
2023/05/01 03:36:59;;;;;;;121.90;117.20;;;9.00;99.90;;;;;;6185671;23;20519;-86
2023/05/01 03:39:26;;;;;;;105.20;101.40;;;9.00;99.90;;;;;;6186806;23;20408;-86
2023/05/01 03:41:53;;;;;;;94.20;90.40;;;9.10;99.90;;;;;;6184717;23;20916;-86
2023/05/01 03:44:21;;;;;;;73.50;70.23;;;9.20;99.90;;;;;;6184730;23;20445;-85
2023/05/01 03:46:48;;;;;;;55.57;53.23;;;9.30;99.90;;;;;;6185307;23;20471;-86
2023/05/01 03:49:15;;;;;;;37.80;35.90;;;9.30;99.90;;;;;;6186675;23;20413;-85
2023/05/01 03:51:42;;;;;;;31.57;29.77;;;9.40;99.90;;;;;;6185143;23;20440;-85
2023/05/01 03:54:09;;;;;;;26.20;24.57;;;9.40;99.90;;;;;;6184821;23;20499;-86
2023/05/01 03:56:37;;;;;;;24.07;22.43;;;9.50;99.90;;;;;;6184671;23;20417;-85
2023/05/01 03:59:04;;;;;;;20.50;19.20;;;9.50;99.90;;;;;;6186272;23;20424;-86
2023/05/01 04:01:33;;;;;;;19.27;17.77;;;9.60;99.90;;;;;;6185107;23;20754;-86
2023/05/01 04:04:00;;;;;;;18.50;16.87;;;9.60;99.90;;;;;;6184719;23;20424;-85
2023/05/01 04:06:27;;;;;;;16.13;14.93;;;9.60;99.90;;;;;;6185471;23;20418;-86
2023/05/01 04:08:55;;;;;;;15.77;14.27;;;9.70;99.90;;;;;;6186517;23;20413;-86
2023/05/01 04:11:37;;;;;;;17.23;15.63;;;9.60;99.90;;;;;;6182463;23;20729;-86
2023/05/01 04:14:20;;;;;;;15.70;14.30;;;9.60;99.90;;;;;;6194746;23;20401;-86
2023/05/01 04:16:54;;;;;;;13.43;12.23;;;9.70;99.90;;;;;;6194767;23;20420;-86
2023/05/01 04:19:35;;;;;;;15.93;13.90;;;9.70;99.90;;;;;;6186507;23;20401;-86
2023/05/01 04:22:02;;;;;;;16.97;15.67;;;9.60;99.90;;;;;;6194207;23;20740;-81
2023/05/01 04:24:29;;;;;;;14.30;13.10;;;9.60;99.90;;;;;;6184238;23;20909;-84
2023/05/01 04:26:57;;;;;;;10.70;9.70;;;9.60;99.90;;;;;;6184098;23;20452;-84
2023/05/01 04:29:24;;;;;;;10.00;9.20;;;9.60;99.90;;;;;;6185817;23;20916;-84
2023/05/01 04:31:52;;;;;;;11.37;8.87;;;9.60;99.90;;;;;;6184805;23;20424;-84
2023/05/01 04:34:19;;;;;;;12.37;8.97;;;9.60;99.90;;;;;;6184323;23;20420;-84
2023/05/01 04:36:46;;;;;;;10.00;6.90;;;9.60;99.90;;;;;;6184659;23;20467;-84
2023/05/01 04:39:14;;;;;;;8.57;6.10;;;9.50;99.90;;;;;;6185910;23;20419;-85
2023/05/01 04:41:40;;;;;;;14.87;7.00;;;9.60;99.90;;;;;;6186226;23;20409;-86
2023/05/01 04:44:07;;;;;;;9.10;7.40;;;9.60;99.90;;;;;;6186732;23;20419;-86
2023/05/01 04:46:34;;;;;;;12.23;6.20;;;9.70;99.90;;;;;;6186897;23;20777;-86
2023/05/01 04:49:03;;;;;;;7.50;5.63;;;9.70;99.90;;;;;;6187861;23;20445;-88
2023/05/01 04:51:30;;;;;;;10.80;6.77;;;9.80;99.90;;;;;;6186964;23;20433;-88
2023/05/01 04:53:57;;;;;;;12.33;6.27;;;9.80;99.90;;;;;;6186703;23;20416;-87
2023/05/01 04:56:25;;;;;;;9.60;5.90;;;9.90;99.90;;;;;;6195439;23;20416;-87
2023/05/01 04:58:52;;;;;;;6.90;5.80;;;10.00;99.90;;;;;;6188143;23;20447;-88
2023/05/01 05:01:19;;;;;;;8.60;6.83;;;10.10;99.90;;;;;;6186422;23;20491;-88
2023/05/01 05:03:46;;;;;;;9.77;7.60;;;10.20;99.90;;;;;;6186082;23;20417;-88
2023/05/01 05:06:14;;;;;;;9.80;6.80;;;10.30;99.90;;;;;;6186659;23;20440;-84
2023/05/01 05:08:41;;;;;;;7.60;6.00;;;10.40;99.90;;;;;;6188036;23;20788;-85
2023/05/01 05:11:11;;;;;;;10.70;6.97;;;10.50;99.90;;;;;;6186783;23;20515;-85
2023/05/01 05:13:38;;;;;;;9.33;6.10;;;10.60;99.90;;;;;;6186303;23;20435;-85
2023/05/01 05:16:05;;;;;;;7.80;5.40;;;10.70;99.90;;;;;;6186220;23;20488;-85
2023/05/01 05:18:32;;;;;;;11.50;6.60;;;10.80;99.90;;;;;;6187449;23;20412;-84
2023/05/01 05:21:04;;;;;;;10.00;6.00;;;11.00;99.90;;;;;;6186876;23;20413;-85
2023/05/01 05:23:32;;;;;;;10.83;6.60;;;11.00;99.90;;;;;;6186220;23;20451;-85
2023/05/01 05:26:00;;;;;;;12.73;5.50;;;11.20;99.90;;;;;;6186160;23;20799;-85
2023/05/01 05:28:27;;;;;;;7.80;6.47;;;11.30;99.90;;;;;;6187484;23;20420;-86
2023/05/01 05:30:54;;;;;;;11.20;6.90;;;11.40;99.90;;;;;;6186656;23;20901;-85
2023/05/01 05:33:21;;;;;;;10.00;6.10;;;11.50;99.90;;;;;;6186069;23;20783;-85
2023/05/01 05:35:49;;;;;;;12.60;6.53;;;11.50;99.90;;;;;;6184849;23;20468;-85
2023/05/01 05:38:16;;;;;;;10.40;7.07;;;11.60;99.90;;;;;;6197179;23;20419;-86
2023/05/01 05:40:44;;;;;;;10.60;7.77;;;11.70;99.90;;;;;;6186932;23;20499;-83
2023/05/01 05:43:11;;;;;;;9.63;6.53;;;11.70;99.90;;;;;;6185378;23;20935;-84
2023/05/01 05:45:38;;;;;;;13.03;8.03;;;11.80;99.90;;;;;;6184960;23;20458;-83
2023/05/01 05:48:05;;;;;;;9.43;5.67;;;11.90;99.90;;;;;;6186882;23;20971;-84
2023/05/01 05:50:32;;;;;;;10.90;7.00;;;12.00;99.90;;;;;;6186987;23;20417;-87
2023/05/01 05:52:59;;;;;;;13.37;6.50;;;12.10;99.90;;;;;;6194547;23;20443;-85
2023/05/01 05:55:29;;;;;;;11.80;8.17;;;12.30;99.90;;;;;;6185231;23;20467;-84
2023/05/01 05:57:57;;;;;;;11.07;6.87;;;12.40;99.90;;;;;;6186372;23;20467;-85
2023/05/01 06:00:27;;;;;;;13.00;8.70;;;12.40;99.90;;;;;;6186849;23;20499;-84
2023/05/01 06:02:53;;;;;;;11.00;7.13;;;12.50;99.90;;;;;;6185405;23;20433;-85
2023/05/01 06:05:23;;;;;;;11.70;6.80;;;12.60;99.90;;;;;;6185700;23;20512;-84
2023/05/01 06:07:50;;;;;;;11.90;5.97;;;12.70;99.90;;;;;;6186962;23;20417;-84
2023/05/01 06:10:17;;;;;;;12.40;5.70;;;12.80;99.90;;;;;;6186447;23;20500;-84
2023/05/01 06:12:43;;;;;;;10.50;6.03;;;12.80;99.90;;;;;;6185239;23;20440;-85
2023/05/01 06:15:18;;;;;;;12.60;6.40;;;12.90;99.90;;;;;;6185671;23;20448;-85
2023/05/01 06:17:45;;;;;;;8.70;4.27;;;13.00;99.90;;;;;;6186880;23;20424;-85
2023/05/01 06:20:13;;;;;;;10.43;6.27;;;13.00;99.90;;;;;;6186627;23;20408;-85
2023/05/01 06:22:40;;;;;;;10.23;6.13;;;13.10;99.90;;;;;;6185464;23;20409;-85
2023/05/01 06:25:08;;;;;;;10.57;5.60;;;13.30;99.90;;;;;;6184845;23;20464;-85
2023/05/01 06:27:35;;;;;;;7.70;5.00;;;13.40;99.40;;;;;;6186465;23;20525;-84
2023/05/01 06:30:02;;;;;;;10.07;6.30;;;13.50;99.10;;;;;;6186658;23;20920;-85
2023/05/01 06:32:30;;;;;;;12.10;6.77;;;13.60;98.20;;;;;;6185297;23;20440;-85
2023/05/01 06:34:57;;;;;;;13.70;6.30;;;13.70;98.80;;;;;;6185019;23;20452;-85
2023/05/01 06:37:24;;;;;;;10.70;4.87;;;13.80;98.10;;;;;;6195982;23;20472;-85
2023/05/01 06:39:51;;;;;;;11.80;5.97;;;13.90;97.90;;;;;;6186457;23;20413;-85
2023/05/01 06:42:20;;;;;;;11.00;6.70;;;14.10;97.10;;;;;;6184614;23;20985;-85
2023/05/01 06:44:47;;;;;;;9.63;5.80;;;14.20;97.10;;;;;;6185205;23;20416;-85
2023/05/01 06:47:14;;;;;;;10.20;5.33;;;14.30;96.10;;;;;;6185570;23;20472;-85
2023/05/01 06:49:43;;;;;;;7.27;4.27;;;14.30;94.70;;;;;;6186655;23;20413;-85
2023/05/01 06:52:10;;;;;;;14.20;7.20;;;14.40;94.50;;;;;;6195089;23;20507;-86
2023/05/01 06:54:37;;;;;;;9.33;5.40;;;14.50;95.10;;;;;;6184599;23;20412;-86
2023/05/01 06:57:04;;;;;;;7.80;4.30;;;14.80;94.90;;;;;;6185388;23;20413;-86
2023/05/01 06:59:31;;;;;;;7.00;4.10;;;15.00;93.00;;;;;;6186576;23;20417;-86
2023/05/01 07:01:58;;;;;;;11.77;6.23;;;15.20;91.60;;;;;;6184207;23;20422;-85
2023/05/01 07:04:25;;;;;;;8.33;4.40;;;15.20;90.60;;;;;;6182902;23;20488;-85
2023/05/01 07:06:53;;;;;;;9.27;4.27;;;15.40;90.10;;;;;;6185073;23;20417;-86
2023/05/01 07:09:21;;;;;;;8.87;4.73;;;15.40;89.50;;;;;;6186491;23;20412;-85
2023/05/01 07:11:48;;;;;;;10.73;3.77;;;15.60;88.60;;;;;;6194210;23;20468;-86
2023/05/01 07:14:16;;;;;;;9.13;4.57;;;15.80;87.50;;;;;;6194366;23;20877;-86
2023/05/01 07:16:42;;;;;;;9.53;4.77;;;15.80;83.50;;;;;;6185139;23;20417;-86
2023/05/01 07:19:10;;;;;;;8.77;6.03;;;15.80;82.20;;;;;;6186876;23;20445;-86
2023/05/01 07:21:37;;;;;;;9.60;4.27;;;16.00;85.00;;;;;;6184632;23;20419;-86
2023/05/01 07:24:06;;;;;;;8.43;3.90;;;16.20;82.60;;;;;;6184662;23;20413;-86
2023/05/01 07:26:34;;;;;;;12.10;4.60;;;16.50;82.90;;;;;;6184947;23;20796;-85
2023/05/01 07:29:00;;;;;;;7.13;3.70;;;16.50;79.80;;;;;;6196922;23;20497;-86
2023/05/01 07:31:28;;;;;;;7.43;3.90;;;16.70;78.70;;;;;;6185135;23;20678;-85
2023/05/01 07:33:56;;;;;;;8.43;4.30;;;16.90;78.10;;;;;;6184788;23;20507;-86
2023/05/01 07:36:23;;;;;;;8.63;4.30;;;16.90;75.80;;;;;;6195055;23;20442;-85
2023/05/01 07:38:51;;;;;;;7.70;4.20;;;17.20;77.30;;;;;;6186400;23;20419;-86
2023/05/01 07:41:21;;;;;;;8.67;3.77;;;17.30;75.40;;;;;;6185078;23;20418;-86
2023/05/01 07:43:49;;;;;;;9.47;4.00;;;17.50;73.20;;;;;;6184648;23;20402;-86
2023/05/01 07:46:16;;;;;;;7.17;3.30;;;17.50;67.90;;;;;;6185198;23;20724;-86
2023/05/01 07:48:43;;;;;;;7.83;3.87;;;17.40;69.60;;;;;;6186560;23;20415;-86
2023/05/01 07:51:10;;;;;;;6.50;3.23;;;17.40;67.80;;;;;;6185268;23;20912;-86
2023/05/01 07:53:39;;;;;;;9.03;4.10;;;17.50;67.90;;;;;;6184941;23;20551;-85
2023/05/01 07:56:07;;;;;;;6.43;3.63;;;17.60;67.90;;;;;;6184903;23;20729;-86
2023/05/01 07:58:36;;;;;;;7.10;3.50;;;17.80;69.50;;;;;;6186541;23;20424;-86
2023/05/01 08:01:03;;;;;;;9.57;3.57;;;17.70;68.00;;;;;;6185236;23;20420;-86
2023/05/01 08:03:31;;;;;;;9.73;3.57;;;18.00;65.80;;;;;;6184557;23;20471;-86
2023/05/01 08:05:58;;;;;;;6.90;3.40;;;18.20;62.60;;;;;;6184623;23;20441;-85
2023/05/01 08:08:26;;;;;;;9.10;3.80;;;18.50;60.50;;;;;;6186033;23;20448;-85
2023/05/01 08:10:53;;;;;;;8.53;3.67;;;18.80;60.80;;;;;;6185030;23;20449;-85
2023/05/01 08:13:20;;;;;;;6.80;3.97;;;19.00;58.10;;;;;;6184616;23;21026;-86
2023/05/01 08:15:49;;;;;;;10.23;3.30;;;18.90;56.60;;;;;;6184634;23;20418;-86
2023/05/01 08:18:22;;;;;;;6.70;3.10;;;18.90;53.70;;;;;;6185952;23;20409;-86
2023/05/01 08:20:49;;;;;;;9.43;3.60;;;19.10;53.90;;;;;;6194923;23;20426;-86
2023/05/01 08:23:17;;;;;;;8.13;3.47;;;19.00;54.20;;;;;;6184920;23;20742;-86
2023/05/01 08:25:45;;;;;;;10.60;3.60;;;19.20;54.10;;;;;;6184692;23;20809;-86
2023/05/01 08:28:13;;;;;;;8.20;3.67;;;19.40;58.40;;;;;;6185569;23;20440;-85
2023/05/01 08:30:40;;;;;;;6.97;3.10;;;19.70;54.40;;;;;;6185172;23;20893;-85
2023/05/01 08:33:08;;;;;;;10.50;4.10;;;19.60;52.80;;;;;;6184704;23;20444;-86
2023/05/01 08:35:35;;;;;;;6.73;3.40;;;19.80;51.50;;;;;;6184276;23;20417;-86
2023/05/01 08:38:02;;;;;;;7.07;3.50;;;20.00;49.20;;;;;;6185907;23;20446;-86
2023/05/01 08:40:33;;;;;;;9.40;4.30;;;19.60;51.90;;;;;;6185663;23;20488;-86
2023/05/01 08:43:01;;;;;;;7.17;3.53;;;19.50;50.30;;;;;;6184285;23;20482;-86
2023/05/01 08:45:34;;;;;;;10.03;3.40;;;19.30;47.90;;;;;;6184553;23;20493;-85
2023/05/01 08:48:04;;;;;;;9.60;3.70;;;19.30;48.80;;;;;;6186004;23;20405;-86
2023/05/01 08:50:36;;;;;;;8.20;3.87;;;19.70;47.00;;;;;;6185084;23;20415;-85
2023/05/01 08:53:03;;;;;;;7.33;3.50;;;19.80;48.60;;;;;;6194405;23;20821;-85
2023/05/01 08:55:32;;;;;;;8.67;3.80;;;20.30;46.30;;;;;;6184403;23;20509;-86
2023/05/01 08:57:59;;;;;;;9.13;3.40;;;20.40;44.70;;;;;;6186024;23;20424;-86
2023/05/01 09:00:28;;;;;;;7.93;3.73;;;20.70;44.20;;;;;;6185652;23;20500;-86
2023/05/01 09:02:56;;;;;;;9.40;3.80;;;21.10;41.90;;;;;;6184621;23;20407;-85
2023/05/01 09:05:23;;;;;;;9.73;4.80;;;21.50;45.80;;;;;;6184613;23;20420;-85
2023/05/01 09:07:51;;;;;;;8.20;4.13;;;21.10;38.50;;;;;;6185098;23;20414;-86
2023/05/01 09:10:18;;;;;;;8.00;3.80;;;21.20;36.40;;;;;;6195504;23;20801;-86
2023/05/01 09:12:52;;;;;;;7.50;3.90;;;21.30;38.50;;;;;;6193866;23;20434;-86
2023/05/01 09:15:19;;;;;;;7.00;3.40;;;21.30;36.40;;;;;;6184561;23;20397;-86
2023/05/01 09:17:47;;;;;;;7.30;3.90;;;21.80;36.70;;;;;;6194965;23;20896;-85
2023/05/01 09:20:18;;;;;;;6.80;3.73;;;22.20;34.30;;;;;;6185577;23;20420;-85
2023/05/01 09:22:45;;;;;;;7.37;3.40;;;22.80;30.00;;;;;;6184637;23;20502;-86
2023/05/01 09:25:14;;;;;;;7.83;3.97;;;23.20;29.30;;;;;;6184457;23;20492;-86
2023/05/01 09:27:41;;;;;;;7.90;3.40;;;23.50;28.60;;;;;;6186295;23;20926;-86
2023/05/01 09:30:09;;;;;;;12.30;4.13;;;23.70;29.70;;;;;;6197086;23;20724;-85
2023/05/01 09:32:36;;;;;;;7.40;4.10;;;23.20;25.80;;;;;;6195740;23;20487;-86
2023/05/01 09:35:11;;;;;;;8.93;3.60;;;23.60;25.40;;;;;;6195480;23;20424;-86
2023/05/01 09:37:38;;;;;;;8.20;3.80;;;23.50;24.30;;;;;;6186796;23;20475;-85
2023/05/01 09:40:07;;;;;;;10.00;4.10;;;23.80;22.40;;;;;;6187476;23;20439;-86
2023/05/01 09:42:37;;;;;;;7.90;3.90;;;23.60;22.30;;;;;;6185285;23;20895;-82
2023/05/01 09:45:06;;;;;;;14.97;3.63;;;23.60;22.30;;;;;;6185271;23;20420;-86
2023/05/01 09:47:36;;;;;;;11.93;4.03;;;23.80;22.40;;;;;;6196501;23;20421;-85
2023/05/01 09:50:04;;;;;;;9.50;3.90;;;23.80;22.40;;;;;;6187512;23;20413;-87
2023/05/01 09:52:32;;;;;;;7.43;3.17;;;24.00;17.90;;;;;;6184912;23;20443;-86
2023/05/01 09:55:16;;;;;;;8.57;3.70;;;23.70;18.30;;;;;;6185177;23;20943;-86
2023/05/01 09:57:46;;;;;;;7.57;3.80;;;23.70;18.00;;;;;;6196341;23;20513;-86
2023/05/01 10:00:14;;;;;;;7.63;4.03;;;23.30;19.70;;;;;;6187633;23;20815;-85
2023/05/01 10:02:42;;;;;;;10.80;4.23;;;22.60;21.60;;;;;;6184854;23;20455;-85
2023/05/01 10:05:10;;;;;;;10.40;3.60;;;23.00;21.90;;;;;;6184771;23;20448;-86
2023/05/01 10:07:38;;;;;;;7.83;3.73;;;23.20;18.20;;;;;;6186546;23;20438;-86
2023/05/01 10:10:18;;;;;;;8.47;3.63;;;23.70;17.30;;;;;;6186902;23;20416;-88
2023/05/01 10:12:47;;;;;;;8.30;4.20;;;24.10;15.10;;;;;;6185460;23;20455;-87
2023/05/01 10:15:14;;;;;;;7.57;3.50;;;24.70;15.60;;;;;;6185846;23;20417;-87
2023/05/01 10:17:43;;;;;;;11.13;4.33;;;24.70;14.80;;;;;;6186245;23;20806;-85
2023/05/01 10:20:12;;;;;;;13.33;5.13;;;24.70;13.60;;;;;;6186576;23;20423;-86
2023/05/01 10:22:39;;;;;;;10.07;3.97;;;25.00;14.40;;;;;;6184896;23;20467;-86
2023/05/01 10:25:10;;;;;;;7.87;4.00;;;25.10;14.40;;;;;;6185095;23;20432;-84
2023/05/01 10:27:39;;;;;;;7.00;3.80;;;24.40;15.40;;;;;;6186239;23;20398;-85
2023/05/01 10:30:10;;;;;;;8.93;4.13;;;23.60;14.30;;;;;;6186441;23;20996;-87
2023/05/01 10:32:38;;;;;;;9.90;4.30;;;24.00;16.30;;;;;;6194701;23;20423;-85
2023/05/01 10:35:11;;;;;;;7.50;3.73;;;24.70;15.30;;;;;;6185021;23;20448;-85
2023/05/01 10:37:46;;;;;;;7.90;3.73;;;25.10;10.80;;;;;;6186390;23;20405;-85
2023/05/01 10:40:45;;;;;;;7.80;3.90;;;25.50;12.70;;;;;;6186758;23;20404;-85
2023/05/01 10:43:17;;;;;;;6.90;3.53;;;26.00;8.70;;;;;;6184742;23;20519;-85
2023/05/01 10:45:47;;;;;;;7.67;4.50;;;26.50;6.80;;;;;;6184422;23;20420;-87
2023/05/01 10:48:53;;;;;;;8.20;3.33;;;27.10;4.70;;;;;;6186894;23;20420;-85
2023/05/01 10:51:21;;;;;;;7.53;3.53;;;26.20;5.00;;;;;;6185690;23;20487;-85
2023/05/01 10:53:49;;;;;;;9.13;4.07;;;25.90;8.60;;;;;;6184817;23;20415;-83
2023/05/01 10:56:41;;;;;;;8.93;4.30;;;25.70;4.70;;;;;;6185195;23;20417;-86
2023/05/01 10:59:09;;;;;;;9.87;4.30;;;25.90;7.40;;;;;;6196593;23;20482;-86
2023/05/01 11:01:39;;;;;;;8.77;5.17;;;26.40;3.30;;;;;;6185980;23;20412;-86
2023/05/01 11:04:08;;;;;;;9.30;4.63;;;26.60;6.40;;;;;;6184986;23;20924;-86
2023/05/01 11:06:36;;;;;;;7.93;3.80;;;26.30;8.90;;;;;;6185450;23;20417;-86
2023/05/01 11:09:36;;;;;;;11.00;4.47;;;26.50;6.10;;;;;;6187233;23;20905;-88
2023/05/01 11:12:04;;;;;;;6.43;3.73;;;26.30;6.60;;;;;;6185256;23;20467;-86
2023/05/01 11:15:06;;;;;;;9.20;4.90;;;27.30;4.70;;;;;;6184576;23;20440;-86
2023/05/01 11:17:48;;;;;;;10.07;4.40;;;26.50;1.10;;;;;;6186309;23;20705;-86
2023/05/01 11:20:47;;;;;;;8.13;3.63;;;25.10;8.20;;;;;;6186351;23;20412;-86
2023/05/01 11:23:18;;;;;;;8.23;3.37;;;23.90;7.30;;;;;;6184708;23;20433;-86
2023/05/01 11:25:50;;;;;;;7.93;3.80;;;23.40;9.70;;;;;;6184427;23;20405;-86
2023/05/01 11:28:21;;;;;;;7.50;4.27;;;22.90;11.30;;;;;;6186567;23;20404;-86
2023/05/01 11:30:48;;;;;;;9.83;4.67;;;23.20;12.90;;;;;;6185575;23;20470;-86
2023/05/01 11:33:25;;;;;;;11.67;4.60;;;23.10;12.30;;;;;;6185334;23;20451;-85
2023/05/01 11:36:02;;;;;;;8.83;4.87;;;22.90;13.50;;;;;;6184952;23;20414;-86
2023/05/01 11:38:29;;;;;;;10.87;4.70;;;23.20;11.90;;;;;;6186653;23;20401;-84
2023/05/01 11:41:02;;;;;;;10.30;4.80;;;23.00;14.40;;;;;;6185547;23;20805;-86
2023/05/01 11:43:29;;;;;;;12.00;5.00;;;23.10;11.40;;;;;;6184614;23;20751;-86
2023/05/01 11:46:01;;;;;;;8.40;4.50;;;23.30;12.20;;;;;;6185150;23;20448;-86
2023/05/01 11:48:31;;;;;;;9.53;4.53;;;22.90;14.30;;;;;;6186465;23;20731;-85
2023/05/01 11:50:58;;;;;;;8.20;4.40;;;22.50;12.50;;;;;;6185048;23;20426;-86
2023/05/01 11:53:25;;;;;;;7.30;3.73;;;23.20;12.60;;;;;;6184975;23;20416;-85
2023/05/01 11:55:52;;;;;;;8.70;4.13;;;23.30;11.10;;;;;;6184331;23;20419;-86
2023/05/01 11:58:32;;;;;;;9.97;3.90;;;22.80;11.80;;;;;;6186109;23;20420;-86
2023/05/01 12:00:59;;;;;;;9.40;3.83;;;22.80;10.40;;;;;;6185644;23;20407;-85
2023/05/01 12:03:26;;;;;;;10.00;3.97;;;22.60;8.70;;;;;;6184536;23;20527;-85
2023/05/01 12:05:54;;;;;;;6.37;3.20;;;22.40;9.60;;;;;;6194621;23;20802;-86
2023/05/01 12:08:22;;;;;;;10.70;2.90;;;22.60;8.80;;;;;;6186202;23;20497;-86
2023/05/01 12:10:51;;;;;;;5.90;2.97;;;22.70;14.10;;;;;;6185611;23;20931;-85
2023/05/01 12:13:19;;;;;;;6.33;2.60;;;22.40;10.70;;;;;;6194287;23;20902;-85
2023/05/01 12:15:47;;;;;;;7.50;3.40;;;22.60;8.50;;;;;;6184287;23;20422;-85
2023/05/01 12:18:15;;;;;;;6.20;2.60;;;22.80;6.60;;;;;;6186149;23;20955;-86
2023/05/01 12:20:44;;;;;;;6.07;2.33;;;23.20;5.60;;;;;;6185706;23;20507;-85
2023/05/01 12:23:14;;;;;;;6.30;2.60;;;23.40;7.00;;;;;;6184671;23;20417;-85
2023/05/01 12:25:43;;;;;;;6.97;2.70;;;23.30;6.90;;;;;;6184375;23;20402;-86
2023/05/01 12:28:13;;;;;;;8.10;2.70;;;24.30;4.60;;;;;;6185666;23;20419;-86
2023/05/01 12:30:40;;;;;;;7.30;2.80;;;25.30;4.00;;;;;;6185291;23;20427;-86
2023/05/01 12:33:12;;;;;;;8.60;2.63;;;26.30;1.00;;;;;;6184474;23;20805;-86
2023/05/01 12:35:40;;;;;;;9.20;2.67;;;26.90;1.00;;;;;;6184748;23;20401;-86
2023/05/01 12:38:13;;;;;;;5.83;2.33;;;27.00;1.00;;;;;;6185549;23;20413;-86
2023/05/01 12:40:41;;;;;;;5.00;1.80;;;26.70;1.00;;;;;;6185365;23;20413;-88
2023/05/01 12:43:08;;;;;;;6.10;2.10;;;26.90;1.00;;;;;;6184399;23;20416;-88
2023/05/01 12:45:40;;;;;;;10.37;2.37;;;27.60;1.00;;;;;;6184527;23;20450;-87
2023/05/01 12:48:12;;;;;;;8.20;2.90;;;27.20;1.00;;;;;;6185565;23;20413;-87
2023/05/01 12:50:39;;;;;;;4.43;1.67;;;26.80;1.00;;;;;;6195590;23;20723;-86
2023/05/01 12:53:08;;;;;;;6.10;1.83;;;26.50;1.00;;;;;;6184504;23;20467;-85
2023/05/01 12:55:46;;;;;;;4.50;1.63;;;26.40;1.00;;;;;;6182187;23;20413;-86
2023/05/01 12:58:13;;;;;;;6.00;2.07;;;26.40;1.00;;;;;;6185491;23;20420;-86
2023/05/01 13:00:48;;;;;;;8.90;2.80;;;25.30;1.00;;;;;;6185065;23;20417;-86